createdAt,value
2018-01-18T00:01:07.422Z,99220
2018-01-18T00:03:37.288Z,99213
2018-01-18T00:06:07.173Z,99091
2018-01-18T00:08:37.109Z,99216
2018-01-18T00:11:06.993Z,99195
2018-01-18T00:13:36.864Z,99211
2018-01-18T00:16:06.877Z,99208
2018-01-18T00:18:36.812Z,99199
2018-01-18T00:21:06.691Z,99192
2018-01-18T00:23:36.562Z,99199
2018-01-18T00:26:06.408Z,99187
2018-01-18T00:28:36.293Z,99194
2018-01-18T00:31:06.155Z,99192
2018-01-18T00:33:36.026Z,99189
2018-01-18T00:36:05.901Z,99187
2018-01-18T00:38:35.811Z,99201
2018-01-18T00:41:05.712Z,99176
2018-01-18T00:43:35.582Z,99179
2018-01-18T00:46:05.561Z,99174
2018-01-18T00:48:35.486Z,99180
2018-01-18T00:51:05.473Z,99176
2018-01-18T00:53:35.317Z,99164
2018-01-18T00:56:05.249Z,99171
2018-01-18T00:58:35.163Z,99165
2018-01-18T01:01:05.074Z,99163
2018-01-18T01:03:34.941Z,99152
2018-01-18T01:06:04.824Z,99154
2018-01-18T01:08:34.696Z,99155
2018-01-18T01:11:04.578Z,99148
2018-01-18T01:13:34.566Z,99148
2018-01-18T01:16:04.463Z,99142
2018-01-18T01:18:34.341Z,99151
2018-01-18T01:21:04.432Z,99150
2018-01-18T01:23:34.429Z,99145
2018-01-18T01:26:04.316Z,99149
2018-01-18T01:28:34.201Z,99145
2018-01-18T01:31:04.083Z,99136
2018-01-18T01:33:34.028Z,99141
2018-01-18T01:36:03.900Z,99131
2018-01-18T01:38:33.776Z,99138
2018-01-18T01:41:03.665Z,99137
2018-01-18T01:43:33.635Z,99135
2018-01-18T01:46:03.508Z,99124
2018-01-18T01:48:39.293Z,99123
2018-01-18T01:51:09.317Z,99120
2018-01-18T01:53:39.185Z,99120
2018-01-18T01:56:09.057Z,99127
2018-01-18T01:58:39.044Z,99123
2018-01-18T02:01:08.931Z,99113
2018-01-18T02:03:38.790Z,99104
2018-01-18T02:06:08.813Z,99103
2018-01-18T02:08:38.723Z,99089
2018-01-18T02:11:08.614Z,99095
2018-01-18T02:13:38.507Z,99089
2018-01-18T02:16:08.938Z,99085
2018-01-18T02:18:38.885Z,99071
2018-01-18T02:21:08.873Z,99081
2018-01-18T02:23:38.845Z,99072
2018-01-18T02:26:08.890Z,99071
2018-01-18T02:28:38.850Z,99064
2018-01-18T02:31:08.733Z,99054
2018-01-18T02:33:38.592Z,99057
2018-01-18T02:36:08.567Z,99052
2018-01-18T02:38:38.510Z,99039
2018-01-18T02:41:08.392Z,99040
2018-01-18T02:43:38.340Z,99041
2018-01-18T02:46:08.315Z,99031
2018-01-18T02:48:38.188Z,99029
2018-01-18T02:51:08.032Z,99029
2018-01-18T02:53:37.916Z,99030
2018-01-18T02:56:07.789Z,99024
2018-01-18T02:58:37.674Z,99014
2018-01-18T03:01:07.628Z,99015
2018-01-18T03:03:37.489Z,99014
2018-01-18T03:06:07.411Z,99002
2018-01-18T03:08:37.479Z,98998
2018-01-18T03:11:07.356Z,98990
2018-01-18T03:13:37.218Z,98979
2018-01-18T03:16:07.186Z,98974
2018-01-18T03:18:37.088Z,98974
2018-01-18T03:21:06.955Z,98963
2018-01-18T03:23:36.933Z,98963
2018-01-18T03:26:06.779Z,98961
2018-01-18T03:28:36.657Z,98942
2018-01-18T03:31:06.524Z,98947
2018-01-18T03:33:36.419Z,98937
2018-01-18T03:36:06.295Z,98930
2018-01-18T03:38:36.219Z,98925
2018-01-18T03:41:06.110Z,98916
2018-01-18T03:43:36.009Z,98920
2018-01-18T03:46:05.856Z,98927
2018-01-18T03:48:35.812Z,98922
2018-01-18T03:51:05.933Z,98920
2018-01-18T03:53:35.784Z,98912
2018-01-18T03:56:05.669Z,98912
2018-01-18T03:58:35.543Z,98901
2018-01-18T04:01:05.415Z,98897
2018-01-18T04:03:35.285Z,98888
2018-01-18T04:06:05.189Z,98892
2018-01-18T04:08:35.052Z,98888
2018-01-18T04:11:04.917Z,98881
2018-01-18T04:13:34.761Z,98870
2018-01-18T04:16:04.641Z,98866
2018-01-18T04:18:34.510Z,98852
2018-01-18T04:21:04.459Z,98849
2018-01-18T04:23:34.428Z,98839
2018-01-18T04:26:04.297Z,98844
2018-01-18T04:28:34.177Z,98838
2018-01-18T04:31:04.124Z,98837
2018-01-18T04:33:34.004Z,98812
2018-01-18T04:36:03.945Z,98799
2018-01-18T04:38:33.868Z,98788
2018-01-18T04:41:03.894Z,98794
2018-01-18T04:43:33.790Z,98783
2018-01-18T04:46:03.715Z,98775
2018-01-18T04:48:33.567Z,98771
2018-01-18T04:51:03.449Z,98765
2018-01-18T04:53:33.355Z,98756
2018-01-18T04:56:03.252Z,98752
2018-01-18T04:58:33.118Z,98733
2018-01-18T05:01:03.002Z,98723
2018-01-18T05:03:32.829Z,98724
2018-01-18T05:06:02.760Z,98720
2018-01-18T05:08:32.675Z,98713
2018-01-18T05:11:02.533Z,98714
2018-01-18T05:13:32.487Z,98707
2018-01-18T05:16:02.353Z,98689
2018-01-18T05:18:32.225Z,98684
2018-01-18T05:21:02.168Z,98676
2018-01-18T05:23:32.032Z,98667
2018-01-18T05:26:01.914Z,98661
2018-01-18T05:28:31.821Z,98654
2018-01-18T05:31:01.753Z,98643
2018-01-18T05:33:31.603Z,98634
2018-01-18T05:36:01.485Z,98618
2018-01-18T05:38:31.355Z,98621
2018-01-18T05:41:01.237Z,98616
2018-01-18T05:43:31.103Z,98611
2018-01-18T05:46:01.044Z,98605
2018-01-18T05:48:30.935Z,98577
2018-01-18T05:51:00.804Z,98568
2018-01-18T05:53:30.755Z,98568
2018-01-18T05:56:00.605Z,98569
2018-01-18T05:58:30.512Z,98568
2018-01-18T06:01:02.130Z,98541
2018-01-18T06:03:32.027Z,98529
2018-01-18T06:06:02.436Z,98515
2018-01-18T06:08:32.767Z,98510
2018-01-18T06:11:02.643Z,98499
2018-01-18T06:13:32.556Z,98471
2018-01-18T06:16:02.422Z,98470
2018-01-18T06:18:32.307Z,98469
2018-01-18T06:21:02.175Z,98452
2018-01-18T06:23:32.207Z,98452
2018-01-18T06:26:02.057Z,98437
2018-01-18T06:28:31.947Z,98436
2018-01-18T06:31:01.856Z,98417
2018-01-18T06:33:31.725Z,98402
2018-01-18T06:36:01.830Z,98402
2018-01-18T06:38:31.753Z,98387
2018-01-18T06:41:01.686Z,98383
2018-01-18T06:43:32.567Z,98370
2018-01-18T06:46:07.153Z,98367
2018-01-18T06:48:37.177Z,98359
2018-01-18T06:51:07.056Z,98350
2018-01-18T06:53:36.896Z,98341
2018-01-18T06:56:06.845Z,98333
2018-01-18T06:58:36.789Z,98325
2018-01-18T07:01:06.637Z,98307
2018-01-18T07:03:36.610Z,98292
2018-01-18T07:06:06.526Z,98281
2018-01-18T07:08:36.385Z,98265
2018-01-18T07:11:06.273Z,98252
2018-01-18T07:13:36.161Z,98239
2018-01-18T07:16:06.031Z,98218
2018-01-18T07:18:35.927Z,98204
2018-01-18T07:21:05.840Z,98192
2018-01-18T07:23:35.680Z,98164
2018-01-18T07:26:05.593Z,98150
2018-01-18T07:28:35.476Z,98143
2018-01-18T07:31:05.347Z,98143
2018-01-18T07:33:35.261Z,98132
2018-01-18T07:36:05.139Z,98113
2018-01-18T07:38:35.094Z,98110
2018-01-18T07:41:04.985Z,98093
2018-01-18T07:43:34.901Z,98075
2018-01-18T07:46:04.797Z,98065
2018-01-18T07:48:34.714Z,98047
2018-01-18T07:51:04.583Z,98043
2018-01-18T07:53:34.566Z,97858
2018-01-18T07:56:04.519Z,98026
2018-01-18T07:58:34.402Z,98015
2018-01-18T08:01:04.301Z,98008
2018-01-18T08:03:39.921Z,98001
2018-01-18T08:06:10.323Z,97985
2018-01-18T08:08:40.260Z,97970
2018-01-18T08:11:10.186Z,97953
2018-01-18T08:13:40.128Z,97938
2018-01-18T08:16:10.022Z,97932
2018-01-18T08:18:40.031Z,97915
2018-01-18T08:21:09.914Z,97903
2018-01-18T08:23:39.775Z,97880
2018-01-18T08:26:09.745Z,97860
2018-01-18T08:28:39.603Z,97849
2018-01-18T08:31:09.495Z,97830
2018-01-18T08:33:39.794Z,97818
2018-01-18T08:36:09.742Z,97803
2018-01-18T08:38:39.656Z,97786
2018-01-18T08:41:09.577Z,97784
2018-01-18T08:43:39.618Z,97766
2018-01-18T08:46:11.108Z,97755
2018-01-18T08:48:41.173Z,97744
2018-01-18T08:51:11.412Z,97728
2018-01-18T08:53:41.414Z,97704
2018-01-18T08:56:11.659Z,97701
2018-01-18T08:58:41.604Z,97677
2018-01-18T09:01:11.509Z,97665
2018-01-18T09:03:41.478Z,97653
2018-01-18T09:06:11.365Z,97643
2018-01-18T09:08:41.211Z,97626
2018-01-18T09:11:11.173Z,97612
2018-01-18T09:13:41.091Z,97595
2018-01-18T09:16:10.948Z,97569
2018-01-18T09:18:40.918Z,97547
2018-01-18T09:21:10.806Z,97545
2018-01-18T09:23:42.687Z,97533
2018-01-18T09:26:13.619Z,97512
2018-01-18T09:28:43.619Z,97490
2018-01-18T09:31:13.594Z,97487
2018-01-18T09:33:43.514Z,97473
2018-01-18T09:36:13.450Z,97463
2018-01-18T09:38:43.544Z,97454
2018-01-18T09:41:13.572Z,97428
2018-01-18T09:43:43.487Z,97413
2018-01-18T09:46:13.384Z,97417
2018-01-18T09:48:43.388Z,97383
2018-01-18T09:51:13.308Z,97380
2018-01-18T09:53:43.301Z,97372
2018-01-18T09:56:13.154Z,97349
2018-01-18T09:58:43.084Z,97343
2018-01-18T10:01:12.980Z,97347
2018-01-18T10:03:42.910Z,97333
2018-01-18T10:06:12.796Z,97323
2018-01-18T10:08:42.745Z,97311
2018-01-18T10:11:12.824Z,97301
2018-01-18T10:13:42.706Z,97296
2018-01-18T10:16:12.685Z,97279
2018-01-18T10:18:42.719Z,97268
2018-01-18T10:21:12.647Z,97257
2018-01-18T10:23:42.673Z,97259
2018-01-18T10:26:12.571Z,97263
2018-01-18T10:28:42.458Z,97240
2018-01-18T10:31:12.392Z,97225
2018-01-18T10:33:42.349Z,97223
2018-01-18T10:36:12.334Z,97199
2018-01-18T10:38:42.244Z,97187
2018-01-18T10:41:12.167Z,97174
2018-01-18T10:43:42.078Z,97160
2018-01-18T10:46:12.079Z,97148
2018-01-18T10:48:42.020Z,97158
2018-01-18T10:51:11.880Z,97167
2018-01-18T10:53:41.741Z,97167
2018-01-18T10:56:11.621Z,97130
2018-01-18T10:58:41.561Z,97128
2018-01-18T11:01:11.426Z,97069
2018-01-18T11:03:41.367Z,97110
2018-01-18T11:06:11.269Z,97099
2018-01-18T11:08:41.170Z,97108
2018-01-18T11:11:11.064Z,97096
2018-01-18T11:13:40.949Z,97088
2018-01-18T11:16:10.920Z,97069
2018-01-18T11:18:40.913Z,97056
2018-01-18T11:21:10.941Z,97064
2018-01-18T11:23:40.786Z,97059
2018-01-18T11:26:10.698Z,97046
2018-01-18T11:28:40.599Z,97044
2018-01-18T11:31:10.502Z,97035
2018-01-18T11:33:40.406Z,97029
2018-01-18T11:36:10.302Z,97033
2018-01-18T11:41:48.789Z,97017
2018-01-18T11:44:18.694Z,97026
2018-01-18T11:46:48.669Z,97023
2018-01-18T11:49:18.554Z,97026
2018-01-18T11:51:48.522Z,97030
2018-01-18T11:54:18.364Z,97014
2018-01-18T11:56:48.440Z,97015
2018-01-18T11:59:18.314Z,97010
2018-01-18T12:01:48.287Z,97013
2018-01-18T12:04:18.202Z,96959
2018-01-18T12:06:48.099Z,97010
2018-01-18T12:09:17.972Z,97019
2018-01-18T12:11:47.992Z,97012
2018-01-18T12:14:17.848Z,97008
2018-01-18T12:16:47.765Z,96993
2018-01-18T12:19:17.767Z,97005
2018-01-18T12:21:47.632Z,96992
2018-01-18T12:24:17.696Z,96998
2018-01-18T12:26:47.613Z,97004
2018-01-18T12:29:17.495Z,97002
2018-01-18T12:31:47.370Z,97006
2018-01-18T12:34:17.307Z,97025
2018-01-18T12:36:47.186Z,97028
2018-01-18T12:39:17.057Z,97018
2018-01-18T12:41:47.040Z,97025
2018-01-18T12:44:16.901Z,97026
2018-01-18T12:46:46.907Z,97020
2018-01-18T12:49:16.774Z,97026
2018-01-18T12:51:46.690Z,97044
2018-01-18T12:54:17.076Z,97050
2018-01-18T12:56:47.270Z,97059
2018-01-18T12:59:17.310Z,97060
2018-01-18T13:01:47.306Z,97064
2018-01-18T13:04:17.607Z,96982
2018-01-18T13:06:47.598Z,97077
2018-01-18T13:09:17.638Z,97070
2018-01-18T13:11:48.195Z,97083
2018-01-18T13:14:18.988Z,97091
2018-01-18T13:16:49.359Z,97110
2018-01-18T13:19:19.624Z,97108
2018-01-18T13:21:49.690Z,97126
2018-01-18T13:24:19.736Z,97142
2018-01-18T13:26:49.680Z,97158
2018-01-18T13:29:19.817Z,97176
2018-01-18T13:31:50.237Z,97190
2018-01-18T13:34:20.337Z,97209
2018-01-18T13:36:50.321Z,97225
2018-01-18T13:39:20.611Z,97243
2018-01-18T13:41:50.661Z,97265
2018-01-18T13:44:20.874Z,97281
2018-01-18T13:46:50.798Z,97306
2018-01-18T13:49:20.724Z,97324
2018-01-18T13:51:50.850Z,97335
2018-01-18T14:46:55.526Z,97820
2018-01-18T14:49:25.441Z,97857
2018-01-18T14:51:55.846Z,97871
2018-01-18T14:57:09.656Z,97909
2018-01-18T14:59:39.531Z,97936
2018-01-18T15:02:09.438Z,97958
2018-01-18T15:04:39.552Z,97982
2018-01-18T15:07:09.696Z,97990
2018-01-18T15:09:39.544Z,98015
2018-01-18T15:12:09.458Z,98035
2018-01-18T15:14:39.284Z,98041
2018-01-18T15:17:24.846Z,98072
2018-01-18T15:19:54.750Z,98093
2018-01-18T15:22:24.679Z,98113
2018-01-18T15:24:54.536Z,98131
2018-01-18T15:27:24.452Z,98147
2018-01-18T15:29:54.306Z,98150
2018-01-18T15:35:32.267Z,98199
2018-01-18T15:38:02.231Z,98217
2018-01-18T15:40:32.574Z,98227
2018-01-18T15:43:02.466Z,98250
2018-01-18T15:45:34.045Z,98256
2018-01-18T15:54:04.582Z,98310
2018-01-18T15:56:34.447Z,98327
2018-01-18T15:59:04.489Z,98350
2018-01-18T16:01:34.321Z,98347
2018-01-18T16:04:04.184Z,98355
2018-01-18T16:06:34.058Z,98355
2018-01-18T16:09:03.946Z,98388
2018-01-18T16:11:33.822Z,98388
2018-01-18T16:14:03.702Z,98402
2018-01-18T16:16:34.157Z,98431
2018-01-18T16:19:04.018Z,98434
2018-01-18T16:21:33.946Z,98447
2018-01-18T16:24:03.769Z,98455
2018-01-18T16:26:33.804Z,98472
2018-01-18T16:29:03.717Z,98482
2018-01-18T16:31:33.663Z,98492
2018-01-18T16:34:03.530Z,98500
2018-01-18T16:36:33.391Z,98508
2018-01-18T16:39:03.196Z,98509
2018-01-18T16:41:33.054Z,98529
2018-01-18T16:44:03.135Z,98530
2018-01-18T16:46:33.014Z,98544
2018-01-18T16:49:02.973Z,98552
2018-01-18T16:51:33.084Z,98568
2018-01-18T16:54:02.940Z,98582
2018-01-18T16:56:32.778Z,98580
2018-01-18T16:59:02.879Z,98589
2018-01-18T17:01:32.700Z,98603
2018-01-18T17:04:02.580Z,98618
2018-01-18T17:06:32.404Z,98624
2018-01-18T17:09:02.298Z,98624
2018-01-18T17:11:32.130Z,98629
2018-01-18T17:14:01.983Z,98638
2018-01-18T17:16:31.797Z,98632
2018-01-18T17:19:01.638Z,98642
2018-01-18T17:21:31.534Z,98650
2018-01-18T17:24:01.355Z,98654
2018-01-18T17:26:31.228Z,98657
2018-01-18T17:29:01.060Z,98669
2018-01-18T17:31:30.886Z,98669
2018-01-18T17:34:00.949Z,98672
2018-01-18T17:36:30.808Z,98679
2018-01-18T17:39:00.941Z,98682
2018-01-18T17:41:30.832Z,98689
2018-01-18T17:44:00.740Z,98693
2018-01-18T17:46:30.624Z,98699
2018-01-18T17:49:00.630Z,98703
2018-01-18T17:51:30.525Z,98707
2018-01-18T17:54:00.477Z,98709
2018-01-18T17:56:30.381Z,98722
2018-01-18T17:59:00.242Z,98726
2018-01-18T18:01:30.068Z,98739
2018-01-18T18:03:59.928Z,98734
2018-01-18T18:06:29.790Z,98749
2018-01-18T18:08:59.669Z,98761
2018-01-18T18:11:29.612Z,98758
2018-01-18T18:13:59.475Z,98755
2018-01-18T18:16:29.464Z,98792
2018-01-18T18:18:59.304Z,98762
2018-01-18T18:21:29.257Z,98767
2018-01-18T18:24:00.165Z,98771
2018-01-18T18:26:30.226Z,98771
2018-01-18T18:29:00.578Z,98787
2018-01-18T18:31:30.430Z,98783
2018-01-18T18:34:00.480Z,98785
2018-01-18T18:36:30.334Z,98794
2018-01-18T18:39:00.197Z,98794
2018-01-18T18:41:30.033Z,98803
2018-01-18T18:43:59.861Z,98803
2018-01-18T18:46:30.187Z,98800
2018-01-18T18:49:01.032Z,98809
2018-01-18T18:51:30.952Z,98815
2018-01-18T18:54:00.846Z,98811
2018-01-18T18:56:30.734Z,98814
2018-01-18T18:59:00.770Z,98823
2018-01-18T19:01:31.042Z,98830
2018-01-18T19:04:00.944Z,98832
2018-01-18T19:06:30.864Z,98832
2018-01-18T19:09:03.062Z,98834
2018-01-18T19:11:35.561Z,98841
2018-01-18T19:14:05.419Z,98851
2018-01-18T19:16:35.567Z,98744
2018-01-18T19:19:05.378Z,98863
2018-01-18T19:21:35.355Z,98865
2018-01-18T19:24:05.230Z,98877
2018-01-18T19:26:35.167Z,98869
2018-01-18T19:29:05.068Z,98873
2018-01-18T19:31:34.926Z,98880
2018-01-18T19:34:04.944Z,98887
2018-01-18T19:36:34.849Z,98884
2018-01-18T19:39:04.806Z,98884
2018-01-18T19:41:34.732Z,98887
2018-01-18T19:44:04.607Z,98895
2018-01-18T19:46:34.484Z,98898
2018-01-18T19:49:04.424Z,98903
2018-01-18T19:51:34.339Z,98907
2018-01-18T19:54:04.252Z,98903
2018-01-18T19:56:34.238Z,98911
2018-01-18T19:59:04.199Z,98916
2018-01-18T20:01:34.217Z,98922
2018-01-18T20:04:04.189Z,98925
2018-01-18T20:06:35.253Z,98922
2018-01-18T20:09:05.168Z,98920
2018-01-18T20:11:35.079Z,98921
2018-01-18T20:14:04.984Z,98926
2018-01-18T20:16:34.860Z,98923
2018-01-18T20:19:04.856Z,98929
2018-01-18T20:21:34.817Z,98933
2018-01-18T20:24:04.747Z,98939
2018-01-18T20:26:34.766Z,98952
2018-01-18T20:29:04.784Z,98952
2018-01-18T20:31:34.761Z,98959
2018-01-18T20:34:04.941Z,98968
2018-01-18T20:36:34.893Z,98966
2018-01-18T20:39:05.187Z,98967
2018-01-18T20:41:35.075Z,98966
2018-01-18T20:44:05.256Z,98972
2018-01-18T20:46:35.128Z,98978
2018-01-18T20:49:05.132Z,98979
2018-01-18T20:51:35.075Z,98983
2018-01-18T20:54:04.948Z,98987
2018-01-18T20:56:34.866Z,98989
2018-01-18T20:59:05.262Z,98992
2018-01-18T21:01:35.219Z,98997
2018-01-18T21:04:05.091Z,98992
2018-01-18T21:06:35.179Z,98995
2018-01-18T21:09:05.078Z,98999
2018-01-18T21:11:34.971Z,98991
2018-01-18T21:14:04.842Z,98999
2018-01-18T21:16:34.769Z,98998
2018-01-18T21:19:04.796Z,98991
2018-01-18T21:21:34.800Z,98994
2018-01-18T21:24:04.699Z,99009
2018-01-18T21:26:34.680Z,99004
2018-01-18T21:29:04.530Z,99010
2018-01-18T21:31:34.472Z,99005
2018-01-18T21:34:04.493Z,99005
2018-01-18T21:36:34.721Z,99010
2018-01-18T21:39:04.570Z,99014
2018-01-18T21:41:34.461Z,99007
2018-01-18T21:44:04.363Z,99000
2018-01-18T22:31:14.578Z,99056
2018-01-18T22:33:44.432Z,99057
2018-01-18T22:36:14.363Z,99056
2018-01-18T22:38:44.269Z,99065
2018-01-18T22:41:14.190Z,99059
2018-01-18T22:43:44.036Z,99057
2018-01-18T22:46:13.971Z,99064
2018-01-18T22:48:43.790Z,99069
2018-01-18T22:51:13.669Z,99068
2018-01-18T22:53:43.512Z,99076
2018-01-18T22:56:13.391Z,99076
2018-01-18T22:58:43.243Z,99078
2018-01-18T23:01:13.170Z,99081
2018-01-18T23:03:43.129Z,99095
2018-01-18T23:06:12.979Z,99088
2018-01-18T23:08:44.646Z,99109
2018-01-18T23:11:14.649Z,99102
2018-01-18T23:13:44.676Z,99107
2018-01-18T23:16:14.880Z,99107
2018-01-18T23:18:44.810Z,99100
2018-01-18T23:21:14.753Z,99103
2018-01-18T23:23:44.681Z,99102
2018-01-18T23:26:14.583Z,99111
2018-01-18T23:28:44.472Z,99108
2018-01-18T23:31:14.348Z,99104
2018-01-18T23:33:44.533Z,99101
2018-01-18T23:36:14.420Z,99113
2018-01-18T23:38:44.616Z,99120
2018-01-18T23:41:14.492Z,99116
2018-01-18T23:43:44.385Z,99117
2018-01-18T23:46:14.397Z,99116
2018-01-18T23:48:44.378Z,99111
2018-01-18T23:51:14.276Z,99112
2018-01-18T23:53:44.161Z,99112
2018-01-18T23:56:14.021Z,99110
2018-01-18T23:58:43.918Z,99122
